KNRS/NRS METAR and TAF weather

Enter ICAO airport designator
Station Type Date Time Source
KNRS METAR 2021/03/01 22:56 UTC NOAA

KNRS 012256Z 26012KT 10SM CLR 20/02 A3010 RMK AO2 SLP191 T02000017 $


Station Type Date Time Source
KNRS Decoded METAR 2021/03/01 22:56 UTC NOAA

IMPERIAL BEACH, NOLF, CA, United States (KNRS) 32-34N 117-07W 5M
Mar 01, 2021 - 05:56 PM EST / 2021.03.01 2256 UTC
Wind: from the W (260 degrees) at 14 MPH (12 KT):0
Visibility: 10 mile(s):0
Sky conditions: clear
Temperature: 68.0 F (20.0 C)
Dew Point: 35.1 F (1.7 C)
Relative Humidity: 29%
Pressure (altimeter): 30.1 in. Hg (1019 hPa)
ob: KNRS 012256Z 26012KT 10SM CLR 20/02 A3010 RMK AO2 SLP191 T02000017
cycle: 23

Station Type Date Time Source
KNRS TAF UTC NOAA

Error!

Example: see airport list